createdAt,value
2023-01-03T00:01:33.468Z,1.50
2023-01-03T00:04:02.915Z,1.50
2023-01-03T00:06:33.536Z,1.50
2023-01-03T00:09:05.892Z,1.42
2023-01-03T00:11:53.261Z,1.60
2023-01-03T00:14:24.188Z,1.35
2023-01-03T00:16:55.484Z,1.58
2023-01-03T00:19:29.102Z,2.10
2023-01-03T00:21:58.109Z,1.40
2023-01-03T00:24:28.172Z,1.80
2023-01-03T00:26:56.705Z,1.60
2023-01-03T00:29:27.057Z,1.83
2023-01-03T00:31:55.689Z,2.10
2023-01-03T00:34:24.521Z,1.70
2023-01-03T00:36:53.108Z,1.92
2023-01-03T00:39:22.147Z,1.50
2023-01-03T00:41:52.469Z,1.85
2023-01-03T00:44:21.583Z,1.60
2023-01-03T00:46:50.195Z,1.80
2023-01-03T00:49:18.822Z,1.75
2023-01-03T00:51:47.627Z,1.33
2023-01-03T00:54:17.456Z,1.48
2023-01-03T00:56:47.731Z,1.40
2023-01-03T00:59:19.212Z,1.75
2023-01-03T01:01:50.139Z,1.50
2023-01-03T01:04:21.489Z,1.50
2023-01-03T01:06:55.579Z,1.42
2023-01-03T01:09:25.686Z,1.58
2023-01-03T01:11:55.091Z,1.65
2023-01-03T01:14:29.908Z,1.42
2023-01-03T01:17:00.358Z,0.90
2023-01-03T01:19:31.040Z,1.30
2023-01-03T01:21:59.936Z,1.30
2023-01-03T01:24:28.568Z,1.00
2023-01-03T01:26:57.288Z,1.27
2023-01-03T01:29:27.452Z,1.20
2023-01-03T01:31:56.931Z,1.33
2023-01-03T01:34:25.524Z,1.08
2023-01-03T01:36:54.299Z,1.15
2023-01-03T01:39:24.492Z,1.20
2023-01-03T01:42:19.340Z,1.20
2023-01-03T01:44:54.168Z,1.13
2023-01-03T01:47:31.654Z,1.30
2023-01-03T01:50:06.749Z,1.40
2023-01-03T01:52:38.843Z,1.58
2023-01-03T01:55:10.908Z,1.25
2023-01-03T01:57:39.619Z,1.20
2023-01-03T02:00:12.299Z,1.60
2023-01-03T02:02:49.260Z,1.35
2023-01-03T02:05:19.616Z,1.40
2023-01-03T02:07:50.458Z,1.30
2023-01-03T02:10:19.881Z,1.25
2023-01-03T02:13:06.484Z,0.82
2023-01-03T02:16:12.016Z,1.08
2023-01-03T02:18:48.733Z,1.50
2023-01-03T02:21:48.390Z,1.17
2023-01-03T02:24:43.970Z,1.20
2023-01-03T02:27:39.048Z,1.02
2023-01-03T02:30:36.982Z,1.10
2023-01-03T02:33:21.609Z,1.30
2023-01-03T02:35:57.086Z,1.25
2023-01-03T02:38:33.737Z,1.40
2023-01-03T02:41:10.051Z,1.20
2023-01-03T02:43:43.309Z,0.90
2023-01-03T02:46:17.614Z,1.10
2023-01-03T02:48:53.422Z,1.20
2023-01-03T02:51:34.382Z,1.10
2023-01-03T02:54:04.964Z,1.30
2023-01-03T02:56:39.135Z,0.98
2023-01-03T02:59:12.576Z,1.00
2023-01-03T03:01:44.960Z,1.02
2023-01-03T03:04:15.448Z,1.17
2023-01-03T03:06:50.135Z,1.00
2023-01-03T03:09:18.876Z,1.23
2023-01-03T03:12:06.453Z,1.50
2023-01-03T03:14:38.222Z,1.30
2023-01-03T03:17:14.817Z,1.20
2023-01-03T03:20:07.056Z,1.30
2023-01-03T03:22:57.348Z,1.15
2023-01-03T03:25:29.990Z,1.00
2023-01-03T03:28:19.810Z,1.30
2023-01-03T03:30:51.929Z,1.30
2023-01-03T03:33:24.918Z,1.40
2023-01-03T03:35:58.525Z,1.50
2023-01-03T03:38:34.175Z,1.40
2023-01-03T03:41:34.347Z,1.70
2023-01-03T03:44:26.598Z,1.35
2023-01-03T03:47:04.153Z,1.38
2023-01-03T03:49:39.849Z,1.50
2023-01-03T03:52:13.852Z,1.25
2023-01-03T03:54:47.825Z,1.67
2023-01-03T03:57:21.972Z,1.52
2023-01-03T03:59:53.820Z,1.45
2023-01-03T04:02:25.036Z,1.33
2023-01-03T04:04:59.533Z,1.80
2023-01-03T04:07:28.259Z,1.60
2023-01-03T04:09:56.976Z,1.50
2023-01-03T04:12:25.855Z,1.40
2023-01-03T04:14:54.435Z,1.40
2023-01-03T04:17:23.090Z,1.50
2023-01-03T04:19:51.862Z,1.27
2023-01-03T04:22:21.865Z,1.23
2023-01-03T04:24:50.450Z,1.17
2023-01-03T04:27:19.028Z,1.45
2023-01-03T04:29:47.502Z,1.38
2023-01-03T04:32:16.163Z,1.30
2023-01-03T04:34:44.683Z,1.30
2023-01-03T04:37:13.901Z,1.30
2023-01-03T04:39:43.959Z,1.50
2023-01-03T04:42:26.416Z,1.30
2023-01-03T04:44:54.937Z,1.20
2023-01-03T04:47:23.420Z,1.15
2023-01-03T04:49:52.641Z,1.40
2023-01-03T04:52:21.214Z,1.45
2023-01-03T04:54:51.137Z,1.38
2023-01-03T04:57:19.673Z,1.40
2023-01-03T04:59:48.188Z,1.40
2023-01-03T05:02:16.863Z,1.42
2023-01-03T05:04:45.539Z,1.42
2023-01-03T05:07:14.107Z,1.40
2023-01-03T05:09:42.650Z,1.10
2023-01-03T05:12:12.655Z,1.17
2023-01-03T05:14:41.732Z,1.20
2023-01-03T05:17:10.566Z,1.13
2023-01-03T05:19:59.184Z,1.13
2023-01-03T05:22:45.411Z,1.35
2023-01-03T05:25:31.347Z,1.30
2023-01-03T05:28:02.324Z,1.40
2023-01-03T05:30:30.909Z,1.52
2023-01-03T05:32:59.493Z,1.50
2023-01-03T05:35:28.039Z,1.50
2023-01-03T05:37:56.706Z,1.40
2023-01-03T05:40:25.271Z,1.50
2023-01-03T05:42:53.793Z,1.70
2023-01-03T05:45:27.170Z,1.63
2023-01-03T05:47:58.539Z,1.58
2023-01-03T05:50:27.185Z,1.55
2023-01-03T05:52:55.739Z,1.52
2023-01-03T05:55:24.742Z,1.88
2023-01-03T05:57:53.325Z,1.63
2023-01-03T06:00:23.373Z,1.70
2023-01-03T06:02:51.903Z,1.98
2023-01-03T06:05:20.578Z,1.90
2023-01-03T06:07:49.139Z,1.55
2023-01-03T06:10:17.886Z,1.88
2023-01-03T06:12:46.658Z,2.53
2023-01-03T06:15:15.209Z,2.30
2023-01-03T06:17:58.081Z,2.35
2023-01-03T06:20:27.871Z,2.38
2023-01-03T06:22:56.861Z,2.30
2023-01-03T06:25:25.848Z,2.10
2023-01-03T06:27:54.420Z,1.92
2023-01-03T06:30:22.923Z,2.10
2023-01-03T06:32:52.889Z,1.85
2023-01-03T06:35:21.511Z,2.45
2023-01-03T06:37:49.987Z,2.08
2023-01-03T06:40:19.374Z,2.40
2023-01-03T06:42:47.911Z,2.13
2023-01-03T06:45:34.204Z,2.38
2023-01-03T06:48:24.751Z,2.15
2023-01-03T06:51:11.790Z,1.95
2023-01-03T06:53:43.289Z,2.70
2023-01-03T06:56:12.308Z,2.17
2023-01-03T06:58:42.569Z,2.60
2023-01-03T07:01:13.646Z,2.67
2023-01-03T07:03:43.533Z,2.30
2023-01-03T07:06:12.046Z,2.50
2023-01-03T07:08:47.914Z,2.70
2023-01-03T07:11:17.068Z,2.05
2023-01-03T07:14:00.906Z,2.25
2023-01-03T07:16:31.686Z,2.60
2023-01-03T07:19:01.976Z,3.28
2023-01-03T07:21:32.360Z,2.60
2023-01-03T07:24:02.646Z,2.38
2023-01-03T07:26:33.437Z,2.30
2023-01-03T07:29:03.585Z,2.40
2023-01-03T07:31:32.775Z,2.65
2023-01-03T07:34:03.068Z,2.63
2023-01-03T07:36:31.619Z,2.60
2023-01-03T07:39:00.337Z,2.45
2023-01-03T07:41:49.091Z,2.50
2023-01-03T07:44:16.668Z,3.00
2023-01-03T07:46:45.340Z,2.90
2023-01-03T07:49:15.313Z,2.60
2023-01-03T07:51:43.890Z,3.30
2023-01-03T07:54:12.443Z,2.50
2023-01-03T07:56:41.050Z,3.15
2023-01-03T07:59:10.295Z,3.40
2023-01-03T08:01:39.065Z,3.00
2023-01-03T08:04:07.684Z,2.83
2023-01-03T08:06:37.573Z,2.90
2023-01-03T08:09:23.873Z,3.50
2023-01-03T08:12:09.742Z,2.97
2023-01-03T08:14:38.580Z,2.78
2023-01-03T08:17:07.916Z,3.13
2023-01-03T08:19:41.714Z,2.80
2023-01-03T08:22:15.159Z,3.20
2023-01-03T08:24:43.630Z,2.97
2023-01-03T08:27:12.237Z,3.70
2023-01-03T08:29:40.839Z,3.55
2023-01-03T08:32:09.408Z,3.47
2023-01-03T08:34:38.784Z,3.55
2023-01-03T08:37:10.953Z,3.53
2023-01-03T08:39:45.016Z,3.53
2023-01-03T08:42:16.575Z,3.40
2023-01-03T08:44:45.835Z,3.63
2023-01-03T08:47:16.613Z,3.33
2023-01-03T08:49:45.253Z,3.33
2023-01-03T08:52:13.863Z,2.88
2023-01-03T08:54:44.341Z,3.33
2023-01-03T08:57:12.946Z,2.85
2023-01-03T08:59:41.517Z,3.40
2023-01-03T09:02:10.317Z,3.13
2023-01-03T09:04:38.981Z,3.08
2023-01-03T09:07:07.581Z,2.90
2023-01-03T09:09:36.185Z,2.90
2023-01-03T09:12:06.375Z,3.00
2023-01-03T09:14:34.972Z,3.05
2023-01-03T09:17:03.744Z,3.00
2023-01-03T09:19:32.308Z,2.72
2023-01-03T09:22:01.007Z,2.65
2023-01-03T09:24:29.574Z,2.22
2023-01-03T09:26:58.177Z,2.50
2023-01-03T09:29:28.111Z,2.22
2023-01-03T09:31:56.827Z,2.35
2023-01-03T09:34:25.396Z,2.80
2023-01-03T09:36:53.963Z,2.22
2023-01-03T09:39:22.577Z,2.17
2023-01-03T09:42:11.480Z,2.08
2023-01-03T09:44:41.875Z,1.65
2023-01-03T09:47:18.560Z,2.15
2023-01-03T09:50:11.685Z,2.38
2023-01-03T09:52:53.618Z,1.67
2023-01-03T09:55:48.863Z,1.90
2023-01-03T09:58:34.918Z,2.08
2023-01-03T10:01:35.840Z,1.70
2023-01-03T10:04:20.489Z,2.05
2023-01-03T10:06:57.505Z,1.60
2023-01-03T10:09:34.157Z,1.80
2023-01-03T10:12:13.747Z,1.60
2023-01-03T10:14:56.618Z,1.70
2023-01-03T10:17:35.490Z,1.80
2023-01-03T10:20:35.977Z,1.80
2023-01-03T10:23:06.589Z,1.50
2023-01-03T10:25:38.078Z,1.52
2023-01-03T10:28:13.584Z,1.40
2023-01-03T10:31:00.951Z,1.70
2023-01-03T10:33:43.058Z,1.20
2023-01-03T10:36:11.835Z,1.45
2023-01-03T10:38:47.813Z,1.23
2023-01-03T10:41:22.654Z,1.30
2023-01-03T10:43:58.569Z,1.30
2023-01-03T10:46:28.125Z,1.38
2023-01-03T10:49:27.282Z,1.15
2023-01-03T10:52:00.024Z,1.48
2023-01-03T10:54:34.434Z,1.20
2023-01-03T10:57:03.120Z,1.13
2023-01-03T10:59:33.224Z,1.20
2023-01-03T11:02:15.196Z,1.20
2023-01-03T11:04:45.799Z,1.20
2023-01-03T11:07:16.919Z,1.45
2023-01-03T11:09:51.708Z,0.90
2023-01-03T11:12:28.640Z,1.30
2023-01-03T11:15:01.038Z,1.10
2023-01-03T11:17:30.814Z,1.23
2023-01-03T11:20:00.662Z,1.10
2023-01-03T11:22:38.357Z,1.00
2023-01-03T11:25:33.123Z,1.00
2023-01-03T11:28:25.998Z,1.00
2023-01-03T11:31:00.206Z,0.95
2023-01-03T11:33:40.758Z,0.80
2023-01-03T11:36:31.482Z,0.95
2023-01-03T11:39:16.165Z,1.00
2023-01-03T11:42:09.107Z,1.10
2023-01-03T11:45:05.465Z,1.20
2023-01-03T11:47:39.816Z,0.60
2023-01-03T11:50:24.836Z,0.85
2023-01-03T11:53:00.303Z,0.82
2023-01-03T11:55:44.797Z,0.85
2023-01-03T11:58:54.826Z,0.75
2023-01-03T12:01:39.308Z,0.95
2023-01-03T12:04:25.790Z,0.80
2023-01-03T12:07:45.799Z,0.80
2023-01-03T12:10:03.112Z,0.57
2023-01-03T12:12:49.545Z,0.70
2023-01-03T12:15:22.324Z,0.90
2023-01-03T12:17:55.870Z,0.80
2023-01-03T12:20:28.171Z,0.77
2023-01-03T12:23:02.055Z,0.80
2023-01-03T12:25:36.915Z,0.60
2023-01-03T12:28:16.004Z,0.88
2023-01-03T12:30:49.443Z,0.85
2023-01-03T12:33:26.974Z,0.60
2023-01-03T12:36:01.019Z,0.95
2023-01-03T12:38:34.997Z,0.93
2023-01-03T12:41:15.083Z,0.82
2023-01-03T12:43:52.387Z,1.00
2023-01-03T12:46:25.857Z,0.90
2023-01-03T12:48:59.676Z,0.70
2023-01-03T12:51:30.160Z,0.70
2023-01-03T12:54:10.209Z,0.90
2023-01-03T12:57:05.281Z,0.70
2023-01-03T13:00:08.137Z,0.80
2023-01-03T13:02:46.977Z,1.00
2023-01-03T13:05:21.411Z,1.15
2023-01-03T13:07:59.561Z,0.85
2023-01-03T13:10:30.933Z,0.85
2023-01-03T13:13:02.473Z,0.70
2023-01-03T13:15:36.530Z,1.00
2023-01-03T13:18:31.768Z,0.70
2023-01-03T13:21:00.955Z,0.70
2023-01-03T13:23:33.223Z,0.63
2023-01-03T13:26:21.687Z,0.70
2023-01-03T13:28:52.423Z,1.05
2023-01-03T13:32:04.603Z,0.80
2023-01-03T13:34:35.877Z,0.80
2023-01-03T13:37:23.182Z,0.80
2023-01-03T13:41:07.638Z,0.70
2023-01-03T13:43:21.607Z,0.50
2023-01-03T13:46:00.688Z,0.80
2023-01-03T13:48:41.780Z,0.68
2023-01-03T13:51:36.462Z,0.80
2023-01-03T13:54:25.672Z,0.70
2023-01-03T13:57:02.295Z,0.52
2023-01-03T13:59:35.874Z,0.70
2023-01-03T14:02:36.310Z,0.60
2023-01-03T14:05:31.124Z,0.52
2023-01-03T14:08:15.339Z,0.57
2023-01-03T14:11:04.442Z,0.70
2023-01-03T14:13:39.683Z,0.80
2023-01-03T14:16:25.656Z,0.68
2023-01-03T14:19:05.080Z,0.50
2023-01-03T14:21:44.633Z,0.60
2023-01-03T14:24:24.344Z,0.60
2023-01-03T14:26:53.816Z,0.50
2023-01-03T14:29:24.620Z,0.70
2023-01-03T14:31:56.148Z,0.73
2023-01-03T14:34:31.434Z,0.60
2023-01-03T14:37:05.445Z,0.50
2023-01-03T14:42:04.222Z,0.60
2023-01-03T14:44:33.677Z,0.75
2023-01-03T14:47:04.979Z,0.80
2023-01-03T14:49:43.687Z,0.90
2023-01-03T14:52:19.222Z,0.60
2023-01-03T14:54:50.367Z,1.10
2023-01-03T14:57:21.080Z,0.88
2023-01-03T14:59:50.246Z,0.70
2023-01-03T15:02:20.114Z,0.50
2023-01-03T15:04:54.939Z,1.25
2023-01-03T15:07:32.892Z,0.82
2023-01-03T15:10:17.644Z,0.88
2023-01-03T15:12:49.257Z,0.80
2023-01-03T15:15:22.710Z,0.60
2023-01-03T15:17:54.301Z,0.60
2023-01-03T15:20:31.839Z,0.73
2023-01-03T15:23:00.560Z,0.90
2023-01-03T15:25:34.049Z,0.90
2023-01-03T15:28:27.962Z,0.73
2023-01-03T15:30:58.652Z,0.90
2023-01-03T15:33:33.421Z,1.05
2023-01-03T15:36:09.901Z,1.30
2023-01-03T15:38:44.962Z,1.33
2023-01-03T15:41:42.117Z,1.77
2023-01-03T15:44:10.853Z,1.10
2023-01-03T15:46:44.854Z,1.02
2023-01-03T15:49:15.788Z,1.30
2023-01-03T15:51:45.787Z,1.15
2023-01-03T15:54:15.669Z,0.90
2023-01-03T15:56:49.755Z,1.10
2023-01-03T15:59:24.415Z,0.77
2023-01-03T16:01:53.592Z,1.38
2023-01-03T16:04:22.846Z,1.17
2023-01-03T16:06:53.495Z,0.90
2023-01-03T16:09:22.422Z,1.00
2023-01-03T16:11:57.217Z,0.98
2023-01-03T16:14:33.974Z,1.17
2023-01-03T16:17:03.494Z,0.90
2023-01-03T16:19:33.539Z,0.88
2023-01-03T16:24:54.609Z,1.02
2023-01-03T16:27:25.658Z,0.98
2023-01-03T16:29:55.035Z,1.15
2023-01-03T16:32:27.422Z,1.30
2023-01-03T16:34:57.999Z,1.30
2023-01-03T16:37:28.166Z,1.55
2023-01-03T16:39:58.190Z,1.67
2023-01-03T16:42:28.406Z,1.58
2023-01-03T16:44:57.754Z,1.67
2023-01-03T16:47:31.736Z,1.60
2023-01-03T16:50:01.958Z,1.27
2023-01-03T16:52:34.641Z,1.08
2023-01-03T16:55:07.193Z,1.75
2023-01-03T16:57:35.744Z,1.30
2023-01-03T17:00:12.477Z,1.50
2023-01-03T17:02:41.247Z,1.40
2023-01-03T17:05:10.648Z,1.48
2023-01-03T17:07:42.046Z,1.30
2023-01-03T17:10:20.368Z,1.83
2023-01-03T17:12:49.305Z,1.77
2023-01-03T17:15:18.133Z,1.48
2023-01-03T17:17:46.870Z,1.40
2023-01-03T17:20:16.837Z,1.20
2023-01-03T17:22:51.475Z,1.17
2023-01-03T17:25:20.243Z,1.17
2023-01-03T17:27:53.677Z,1.15
2023-01-03T17:30:25.063Z,1.10
2023-01-03T17:32:53.951Z,1.30
2023-01-03T17:35:22.576Z,1.02
2023-01-03T17:38:24.086Z,1.42
2023-01-03T17:40:45.357Z,1.20
2023-01-03T17:43:22.245Z,1.55
2023-01-03T17:46:11.275Z,2.00
2023-01-03T17:48:57.728Z,2.00
2023-01-03T17:51:26.463Z,2.08
2023-01-03T17:53:56.690Z,2.25
2023-01-03T17:56:25.588Z,1.58
2023-01-03T17:58:56.459Z,1.70
2023-01-03T18:01:25.501Z,1.70
2023-01-03T18:03:54.141Z,1.95
2023-01-03T18:06:25.435Z,1.75
2023-01-03T18:08:56.971Z,1.35
2023-01-03T18:11:28.204Z,1.33
2023-01-03T18:13:56.785Z,1.65
2023-01-03T18:16:25.438Z,1.35
2023-01-03T18:18:54.006Z,1.40
2023-01-03T18:21:24.351Z,1.60
2023-01-03T18:23:58.331Z,1.65
2023-01-03T18:26:33.384Z,1.25
2023-01-03T18:29:02.358Z,1.38
2023-01-03T18:31:31.278Z,1.10
2023-01-03T18:34:04.384Z,1.40
2023-01-03T18:36:39.707Z,1.08
2023-01-03T18:39:14.110Z,1.30
2023-01-03T18:41:43.935Z,1.30
2023-01-03T18:44:20.525Z,1.38
2023-01-03T18:46:49.165Z,1.73
2023-01-03T18:49:18.871Z,1.50
2023-01-03T18:51:49.767Z,1.30
2023-01-03T18:54:20.815Z,1.70
2023-01-03T18:56:49.432Z,1.30
2023-01-03T18:59:22.448Z,1.20
2023-01-03T19:01:51.470Z,1.50
2023-01-03T19:04:20.238Z,1.52
2023-01-03T19:06:51.269Z,1.58
2023-01-03T19:09:23.146Z,1.58
2023-01-03T19:11:52.581Z,1.52
2023-01-03T19:14:21.589Z,1.42
2023-01-03T19:16:50.218Z,1.40
2023-01-03T19:19:18.768Z,1.20
2023-01-03T19:21:48.804Z,1.52
2023-01-03T19:24:24.522Z,1.35
2023-01-03T19:26:55.685Z,1.40
2023-01-03T19:29:28.329Z,1.05
2023-01-03T19:31:58.998Z,1.23
2023-01-03T19:34:28.826Z,1.60
2023-01-03T19:36:59.192Z,1.67
2023-01-03T19:39:35.217Z,1.40
2023-01-03T19:42:25.544Z,1.17
2023-01-03T19:44:55.117Z,1.23
2023-01-03T19:47:23.735Z,1.20
2023-01-03T19:49:52.374Z,1.30
2023-01-03T19:52:20.893Z,1.35
2023-01-03T19:54:50.791Z,1.50
2023-01-03T19:57:23.630Z,1.20
2023-01-03T19:59:55.164Z,1.48
2023-01-03T20:02:37.121Z,1.00
2023-01-03T20:05:15.385Z,1.48
2023-01-03T20:07:44.463Z,1.52
2023-01-03T20:10:22.344Z,1.52
2023-01-03T20:12:53.247Z,1.85
2023-01-03T20:15:24.352Z,2.33
2023-01-03T20:17:53.820Z,1.58
2023-01-03T20:20:24.325Z,1.75
2023-01-03T20:23:07.629Z,1.30
2023-01-03T20:25:38.229Z,1.30
2023-01-03T20:28:07.537Z,1.58
2023-01-03T20:30:36.138Z,1.75
2023-01-03T20:33:04.823Z,2.00
2023-01-03T20:36:09.840Z,1.92
2023-01-03T20:38:26.905Z,1.25
2023-01-03T20:40:57.773Z,1.30
2023-01-03T20:43:27.507Z,1.50
2023-01-03T20:45:58.561Z,1.60
2023-01-03T20:48:27.130Z,1.38
2023-01-03T20:50:55.912Z,2.00
2023-01-03T20:53:26.085Z,2.30
2023-01-03T20:55:56.032Z,1.85
2023-01-03T20:58:25.967Z,1.35
2023-01-03T21:01:02.128Z,1.70
2023-01-03T21:03:34.013Z,1.70
2023-01-03T21:06:02.889Z,1.60
2023-01-03T21:08:49.115Z,1.63
2023-01-03T21:11:19.007Z,1.85
2023-01-03T21:13:47.565Z,1.77
2023-01-03T21:16:28.093Z,1.55
2023-01-03T21:18:57.058Z,1.80
2023-01-03T21:21:26.167Z,2.22
2023-01-03T21:23:55.374Z,1.70
2023-01-03T21:26:25.467Z,2.10
2023-01-03T21:28:54.330Z,1.48
2023-01-03T21:31:24.484Z,1.52
2023-01-03T21:33:53.680Z,1.40
2023-01-03T21:36:25.172Z,1.60
2023-01-03T21:38:53.703Z,1.60
2023-01-03T21:41:24.511Z,1.45
2023-01-03T21:43:57.031Z,2.10
2023-01-03T21:46:26.611Z,2.47
2023-01-03T21:48:55.879Z,2.67
2023-01-03T21:51:37.226Z,2.38
2023-01-03T21:54:08.459Z,3.10
2023-01-03T21:56:45.121Z,3.08
2023-01-03T21:59:16.799Z,1.75
2023-01-03T22:02:03.337Z,1.90
2023-01-03T22:04:32.644Z,1.83
2023-01-03T22:07:01.895Z,1.30
2023-01-03T22:09:49.354Z,1.50
2023-01-03T22:12:18.907Z,1.23
2023-01-03T22:14:49.113Z,1.65
2023-01-03T22:17:17.841Z,2.10
2023-01-03T22:19:46.509Z,1.35
2023-01-03T22:22:15.040Z,1.85
2023-01-03T22:24:43.653Z,1.48
2023-01-03T22:27:12.409Z,1.63
2023-01-03T22:29:40.956Z,1.73
2023-01-03T22:32:10.992Z,1.65
2023-01-03T22:34:42.704Z,1.65
2023-01-03T22:37:11.257Z,2.85
2023-01-03T22:39:39.741Z,1.38
2023-01-03T22:42:08.193Z,1.55
2023-01-03T22:44:36.782Z,1.60
2023-01-03T22:47:07.720Z,1.88
2023-01-03T22:49:37.987Z,1.95
2023-01-03T22:52:06.719Z,1.27
2023-01-03T22:54:36.241Z,1.50
2023-01-03T22:57:05.103Z,1.27
2023-01-03T22:59:33.712Z,1.30
2023-01-03T23:02:02.464Z,1.55
2023-01-03T23:04:31.293Z,1.25
2023-01-03T23:07:01.348Z,1.27
2023-01-03T23:09:29.918Z,1.42
2023-01-03T23:12:16.059Z,1.55
2023-01-03T23:14:44.698Z,1.27
2023-01-03T23:17:27.190Z,1.40
2023-01-03T23:19:55.709Z,1.58
2023-01-03T23:22:26.715Z,1.70
2023-01-03T23:24:57.995Z,1.60
2023-01-03T23:27:27.490Z,1.30
2023-01-03T23:29:56.130Z,1.42
2023-01-03T23:32:24.729Z,1.88
2023-01-03T23:34:53.352Z,1.33
2023-01-03T23:37:22.012Z,1.40
2023-01-03T23:39:54.564Z,1.38
2023-01-03T23:42:23.114Z,1.33
2023-01-03T23:44:51.715Z,1.48
2023-01-03T23:47:20.362Z,1.48
2023-01-03T23:49:48.922Z,1.45
2023-01-03T23:52:17.459Z,1.70
2023-01-03T23:54:46.021Z,1.50
2023-01-03T23:57:16.017Z,1.40
2023-01-03T23:59:44.605Z,1.70
